sensor_id;sensor_type;location;lat;lon;timestamp;temperature;humidity
22035;DHT22;11181;51.002;4.356;2022-07-29T00:01:08;22.50;96.80
22035;DHT22;11181;51.002;4.356;2022-07-29T00:03:35;22.50;96.70
22035;DHT22;11181;51.002;4.356;2022-07-29T00:06:02;22.50;96.70
22035;DHT22;11181;51.002;4.356;2022-07-29T00:08:30;22.60;96.70
22035;DHT22;11181;51.002;4.356;2022-07-29T00:10:57;22.60;96.70
22035;DHT22;11181;51.002;4.356;2022-07-29T00:13:24;22.60;96.70
22035;DHT22;11181;51.002;4.356;2022-07-29T00:15:51;22.60;96.70
22035;DHT22;11181;51.002;4.356;2022-07-29T00:18:21;22.50;96.80
22035;DHT22;11181;51.002;4.356;2022-07-29T00:20:48;22.50;96.80
22035;DHT22;11181;51.002;4.356;2022-07-29T00:23:14;22.50;96.80
22035;DHT22;11181;51.002;4.356;2022-07-29T00:25:43;22.50;96.70
22035;DHT22;11181;51.002;4.356;2022-07-29T00:28:10;22.20;97.10
22035;DHT22;11181;51.002;4.356;2022-07-29T00:30:37;22.20;97.40
22035;DHT22;11181;51.002;4.356;2022-07-29T00:33:04;22.20;97.50
22035;DHT22;11181;51.002;4.356;2022-07-29T00:35:30;22.30;97.40
22035;DHT22;11181;51.002;4.356;2022-07-29T00:38:12;22.20;97.40
22035;DHT22;11181;51.002;4.356;2022-07-29T00:40:40;22.40;97.30
22035;DHT22;11181;51.002;4.356;2022-07-29T00:43:09;22.40;97.30
22035;DHT22;11181;51.002;4.356;2022-07-29T00:45:36;22.40;97.10
22035;DHT22;11181;51.002;4.356;2022-07-29T00:48:03;22.40;97.30
22035;DHT22;11181;51.002;4.356;2022-07-29T00:50:31;22.30;97.40
22035;DHT22;11181;51.002;4.356;2022-07-29T00:52:59;22.20;97.30
22035;DHT22;11181;51.002;4.356;2022-07-29T00:55:26;22.10;97.60
22035;DHT22;11181;51.002;4.356;2022-07-29T00:57:53;22.00;97.80
22035;DHT22;11181;51.002;4.356;2022-07-29T01:00:24;22.00;98.10
22035;DHT22;11181;51.002;4.356;2022-07-29T01:02:51;22.00;98.20
22035;DHT22;11181;51.002;4.356;2022-07-29T01:05:22;22.00;98.10
22035;DHT22;11181;51.002;4.356;2022-07-29T01:07:52;22.00;98.20
22035;DHT22;11181;51.002;4.356;2022-07-29T01:10:20;22.00;98.20
22035;DHT22;11181;51.002;4.356;2022-07-29T01:12:49;21.90;98.50
22035;DHT22;11181;51.002;4.356;2022-07-29T01:15:17;21.90;98.70
22035;DHT22;11181;51.002;4.356;2022-07-29T01:17:50;21.70;99.20
22035;DHT22;11181;51.002;4.356;2022-07-29T01:20:25;21.50;99.50
22035;DHT22;11181;51.002;4.356;2022-07-29T01:26:28;21.40;99.90
22035;DHT22;11181;51.002;4.356;2022-07-29T01:29:07;21.50;99.90
22035;DHT22;11181;51.002;4.356;2022-07-29T01:31:43;21.60;99.90
22035;DHT22;11181;51.002;4.356;2022-07-29T01:34:17;21.60;99.90
22035;DHT22;11181;51.002;4.356;2022-07-29T01:36:48;21.70;99.90
22035;DHT22;11181;51.002;4.356;2022-07-29T01:39:19;21.70;99.80
22035;DHT22;11181;51.002;4.356;2022-07-29T01:41:52;21.80;99.90
22035;DHT22;11181;51.002;4.356;2022-07-29T01:44:28;21.80;99.60
22035;DHT22;11181;51.002;4.356;2022-07-29T01:47:00;21.90;99.60
22035;DHT22;11181;51.002;4.356;2022-07-29T01:49:31;21.80;99.80
22035;DHT22;11181;51.002;4.356;2022-07-29T01:52:05;21.80;99.50
22035;DHT22;11181;51.002;4.356;2022-07-29T01:54:35;21.80;99.60
22035;DHT22;11181;51.002;4.356;2022-07-29T01:57:04;21.60;99.90
22035;DHT22;11181;51.002;4.356;2022-07-29T01:59:35;21.60;99.90
22035;DHT22;11181;51.002;4.356;2022-07-29T02:02:05;21.40;99.90
22035;DHT22;11181;51.002;4.356;2022-07-29T02:04:35;21.40;99.90
22035;DHT22;11181;51.002;4.356;2022-07-29T02:07:06;21.50;99.90
22035;DHT22;11181;51.002;4.356;2022-07-29T02:09:35;21.50;99.90
22035;DHT22;11181;51.002;4.356;2022-07-29T02:12:04;21.60;99.90
22035;DHT22;11181;51.002;4.356;2022-07-29T02:14:37;21.60;99.90
22035;DHT22;11181;51.002;4.356;2022-07-29T02:17:04;21.50;99.90
22035;DHT22;11181;51.002;4.356;2022-07-29T02:19:33;21.40;99.90
22035;DHT22;11181;51.002;4.356;2022-07-29T02:22:00;21.30;99.90
22035;DHT22;11181;51.002;4.356;2022-07-29T02:24:28;21.30;99.90
22035;DHT22;11181;51.002;4.356;2022-07-29T02:26:57;21.30;99.90
22035;DHT22;11181;51.002;4.356;2022-07-29T02:29:27;21.30;99.90
22035;DHT22;11181;51.002;4.356;2022-07-29T02:31:57;21.30;99.90
22035;DHT22;11181;51.002;4.356;2022-07-29T02:34:25;21.30;99.90
22035;DHT22;11181;51.002;4.356;2022-07-29T02:36:54;21.30;99.90
22035;DHT22;11181;51.002;4.356;2022-07-29T02:39:24;21.30;99.90
22035;DHT22;11181;51.002;4.356;2022-07-29T02:41:55;21.20;99.90
22035;DHT22;11181;51.002;4.356;2022-07-29T02:44:25;21.20;99.90
22035;DHT22;11181;51.002;4.356;2022-07-29T02:46:58;21.10;99.90
22035;DHT22;11181;51.002;4.356;2022-07-29T02:49:34;21.10;99.90
22035;DHT22;11181;51.002;4.356;2022-07-29T02:52:03;21.00;99.90
22035;DHT22;11181;51.002;4.356;2022-07-29T02:54:36;21.00;99.90
22035;DHT22;11181;51.002;4.356;2022-07-29T02:57:09;20.90;99.90
22035;DHT22;11181;51.002;4.356;2022-07-29T02:59:41;21.00;99.90
22035;DHT22;11181;51.002;4.356;2022-07-29T03:02:12;20.90;99.90
22035;DHT22;11181;51.002;4.356;2022-07-29T03:04:41;20.90;99.90
22035;DHT22;11181;51.002;4.356;2022-07-29T03:07:10;20.90;99.90
22035;DHT22;11181;51.002;4.356;2022-07-29T03:09:40;20.90;99.90
22035;DHT22;11181;51.002;4.356;2022-07-29T03:12:08;20.90;99.90
22035;DHT22;11181;51.002;4.356;2022-07-29T03:14:37;20.90;99.90
22035;DHT22;11181;51.002;4.356;2022-07-29T03:17:05;20.90;99.90
22035;DHT22;11181;51.002;4.356;2022-07-29T03:19:33;20.80;99.90
22035;DHT22;11181;51.002;4.356;2022-07-29T03:22:01;20.80;99.90
22035;DHT22;11181;51.002;4.356;2022-07-29T03:24:30;20.90;99.90
22035;DHT22;11181;51.002;4.356;2022-07-29T03:26:58;20.80;99.90
22035;DHT22;11181;51.002;4.356;2022-07-29T03:29:26;20.90;99.90
22035;DHT22;11181;51.002;4.356;2022-07-29T03:31:53;20.80;99.90
22035;DHT22;11181;51.002;4.356;2022-07-29T03:34:20;20.80;99.90
22035;DHT22;11181;51.002;4.356;2022-07-29T03:36:49;20.70;99.90
22035;DHT22;11181;51.002;4.356;2022-07-29T03:39:19;20.70;99.90
22035;DHT22;11181;51.002;4.356;2022-07-29T03:41:49;20.70;99.90
22035;DHT22;11181;51.002;4.356;2022-07-29T03:44:17;20.60;99.90
22035;DHT22;11181;51.002;4.356;2022-07-29T03:46:45;20.60;99.90
22035;DHT22;11181;51.002;4.356;2022-07-29T03:49:15;20.60;99.90
22035;DHT22;11181;51.002;4.356;2022-07-29T03:51:43;20.60;99.90
22035;DHT22;11181;51.002;4.356;2022-07-29T03:54:11;20.60;99.90
22035;DHT22;11181;51.002;4.356;2022-07-29T03:56:41;20.60;99.90
22035;DHT22;11181;51.002;4.356;2022-07-29T03:59:12;20.50;99.90
22035;DHT22;11181;51.002;4.356;2022-07-29T04:01:40;20.50;99.90
22035;DHT22;11181;51.002;4.356;2022-07-29T04:04:07;20.50;99.90
22035;DHT22;11181;51.002;4.356;2022-07-29T04:06:39;20.50;99.90
22035;DHT22;11181;51.002;4.356;2022-07-29T04:09:06;20.50;99.90
22035;DHT22;11181;51.002;4.356;2022-07-29T04:11:36;20.40;99.90
22035;DHT22;11181;51.002;4.356;2022-07-29T04:14:03;20.40;99.90
22035;DHT22;11181;51.002;4.356;2022-07-29T04:16:30;20.30;99.90
22035;DHT22;11181;51.002;4.356;2022-07-29T04:18:57;20.30;99.90
22035;DHT22;11181;51.002;4.356;2022-07-29T04:21:24;20.20;99.90
22035;DHT22;11181;51.002;4.356;2022-07-29T04:23:51;20.20;99.90
22035;DHT22;11181;51.002;4.356;2022-07-29T04:26:18;20.10;99.90
22035;DHT22;11181;51.002;4.356;2022-07-29T04:28:47;20.10;99.90
22035;DHT22;11181;51.002;4.356;2022-07-29T04:31:13;20.10;99.90
22035;DHT22;11181;51.002;4.356;2022-07-29T04:33:40;20.10;99.90
22035;DHT22;11181;51.002;4.356;2022-07-29T04:36:07;20.10;99.90
22035;DHT22;11181;51.002;4.356;2022-07-29T04:38:36;20.10;99.90
22035;DHT22;11181;51.002;4.356;2022-07-29T04:41:03;20.10;99.90
22035;DHT22;11181;51.002;4.356;2022-07-29T04:43:30;20.00;99.90
22035;DHT22;11181;51.002;4.356;2022-07-29T04:45:58;20.00;99.90
22035;DHT22;11181;51.002;4.356;2022-07-29T04:48:25;20.00;99.90
22035;DHT22;11181;51.002;4.356;2022-07-29T04:50:52;20.00;99.90
22035;DHT22;11181;51.002;4.356;2022-07-29T04:53:19;20.00;99.90
22035;DHT22;11181;51.002;4.356;2022-07-29T04:55:46;20.00;99.90
22035;DHT22;11181;51.002;4.356;2022-07-29T04:58:13;20.00;99.90
22035;DHT22;11181;51.002;4.356;2022-07-29T05:00:40;20.00;99.90
22035;DHT22;11181;51.002;4.356;2022-07-29T05:03:09;20.00;99.90
22035;DHT22;11181;51.002;4.356;2022-07-29T05:05:36;20.00;99.90
22035;DHT22;11181;51.002;4.356;2022-07-29T05:08:03;20.10;99.90
22035;DHT22;11181;51.002;4.356;2022-07-29T05:10:30;20.10;99.90
22035;DHT22;11181;51.002;4.356;2022-07-29T05:12:57;19.90;99.90
22035;DHT22;11181;51.002;4.356;2022-07-29T05:15:24;19.80;99.90
22035;DHT22;11181;51.002;4.356;2022-07-29T05:17:50;19.90;99.90
22035;DHT22;11181;51.002;4.356;2022-07-29T05:20:19;19.90;99.90
22035;DHT22;11181;51.002;4.356;2022-07-29T05:22:51;19.90;99.90
22035;DHT22;11181;51.002;4.356;2022-07-29T05:25:18;19.90;99.90
22035;DHT22;11181;51.002;4.356;2022-07-29T05:27:45;20.10;99.90
22035;DHT22;11181;51.002;4.356;2022-07-29T05:30:12;20.20;99.90
22035;DHT22;11181;51.002;4.356;2022-07-29T05:32:39;20.30;99.90
22035;DHT22;11181;51.002;4.356;2022-07-29T05:35:07;20.40;99.90
22035;DHT22;11181;51.002;4.356;2022-07-29T05:37:35;20.50;99.90
22035;DHT22;11181;51.002;4.356;2022-07-29T05:40:03;20.50;99.90
22035;DHT22;11181;51.002;4.356;2022-07-29T05:42:30;20.50;99.90
22035;DHT22;11181;51.002;4.356;2022-07-29T05:44:57;20.50;99.90
22035;DHT22;11181;51.002;4.356;2022-07-29T05:47:24;20.50;99.90
22035;DHT22;11181;51.002;4.356;2022-07-29T05:49:51;20.50;99.90
22035;DHT22;11181;51.002;4.356;2022-07-29T05:52:18;20.50;99.90
22035;DHT22;11181;51.002;4.356;2022-07-29T05:54:46;20.70;99.90
22035;DHT22;11181;51.002;4.356;2022-07-29T05:57:17;20.70;99.90
22035;DHT22;11181;51.002;4.356;2022-07-29T05:59:44;20.80;99.90
22035;DHT22;11181;51.002;4.356;2022-07-29T06:02:11;20.80;99.90
22035;DHT22;11181;51.002;4.356;2022-07-29T06:04:38;20.90;99.90
22035;DHT22;11181;51.002;4.356;2022-07-29T06:07:05;20.90;99.90
22035;DHT22;11181;51.002;4.356;2022-07-29T06:09:32;20.80;99.90
22035;DHT22;11181;51.002;4.356;2022-07-29T06:12:00;20.70;99.90
22035;DHT22;11181;51.002;4.356;2022-07-29T06:14:28;20.70;99.90
22035;DHT22;11181;51.002;4.356;2022-07-29T06:16:55;20.80;99.90
22035;DHT22;11181;51.002;4.356;2022-07-29T06:19:22;20.80;99.90
22035;DHT22;11181;51.002;4.356;2022-07-29T06:21:49;20.90;99.90
22035;DHT22;11181;51.002;4.356;2022-07-29T06:24:16;20.90;99.90
22035;DHT22;11181;51.002;4.356;2022-07-29T06:26:43;21.00;99.90
22035;DHT22;11181;51.002;4.356;2022-07-29T06:29:12;21.10;99.90
22035;DHT22;11181;51.002;4.356;2022-07-29T06:31:39;21.20;99.90
22035;DHT22;11181;51.002;4.356;2022-07-29T06:34:06;21.30;99.90
22035;DHT22;11181;51.002;4.356;2022-07-29T06:36:34;21.50;99.90
22035;DHT22;11181;51.002;4.356;2022-07-29T06:39:04;21.50;99.90
22035;DHT22;11181;51.002;4.356;2022-07-29T06:41:31;21.50;99.90
22035;DHT22;11181;51.002;4.356;2022-07-29T06:43:58;21.40;99.90
22035;DHT22;11181;51.002;4.356;2022-07-29T06:46:26;21.70;99.90
22035;DHT22;11181;51.002;4.356;2022-07-29T06:48:53;21.80;99.90
22035;DHT22;11181;51.002;4.356;2022-07-29T06:51:20;21.70;99.90
22035;DHT22;11181;51.002;4.356;2022-07-29T06:53:47;21.90;99.90
22035;DHT22;11181;51.002;4.356;2022-07-29T06:56:14;22.20;99.90
22035;DHT22;11181;51.002;4.356;2022-07-29T06:58:41;22.30;99.90
22035;DHT22;11181;51.002;4.356;2022-07-29T07:01:08;22.50;99.90
22035;DHT22;11181;51.002;4.356;2022-07-29T07:03:36;22.70;99.90
22035;DHT22;11181;51.002;4.356;2022-07-29T07:06:03;22.90;99.90
22035;DHT22;11181;51.002;4.356;2022-07-29T07:08:30;23.00;99.90
22035;DHT22;11181;51.002;4.356;2022-07-29T07:10:57;23.20;99.90
22035;DHT22;11181;51.002;4.356;2022-07-29T07:13:25;23.30;99.90
22035;DHT22;11181;51.002;4.356;2022-07-29T07:15:52;23.50;99.90
22035;DHT22;11181;51.002;4.356;2022-07-29T07:18:19;23.60;99.90
22035;DHT22;11181;51.002;4.356;2022-07-29T07:20:47;23.80;99.90
22035;DHT22;11181;51.002;4.356;2022-07-29T07:23:14;23.90;99.90
22035;DHT22;11181;51.002;4.356;2022-07-29T07:25:41;23.80;99.90
22035;DHT22;11181;51.002;4.356;2022-07-29T07:28:08;24.00;99.90
22035;DHT22;11181;51.002;4.356;2022-07-29T07:30:35;24.00;99.90
22035;DHT22;11181;51.002;4.356;2022-07-29T07:33:02;24.10;99.90
22035;DHT22;11181;51.002;4.356;2022-07-29T07:35:30;24.00;99.90
22035;DHT22;11181;51.002;4.356;2022-07-29T07:37:58;24.10;99.90
22035;DHT22;11181;51.002;4.356;2022-07-29T07:40:25;24.20;99.90
22035;DHT22;11181;51.002;4.356;2022-07-29T07:42:52;24.30;99.90
22035;DHT22;11181;51.002;4.356;2022-07-29T07:45:19;24.50;99.90
22035;DHT22;11181;51.002;4.356;2022-07-29T07:47:46;24.70;99.90
22035;DHT22;11181;51.002;4.356;2022-07-29T07:50:13;24.70;99.90
22035;DHT22;11181;51.002;4.356;2022-07-29T07:52:48;24.70;99.90
22035;DHT22;11181;51.002;4.356;2022-07-29T07:55:17;24.80;99.90
22035;DHT22;11181;51.002;4.356;2022-07-29T07:57:46;24.90;99.90
22035;DHT22;11181;51.002;4.356;2022-07-29T08:00:14;24.80;99.90
22035;DHT22;11181;51.002;4.356;2022-07-29T08:02:41;24.80;99.90
22035;DHT22;11181;51.002;4.356;2022-07-29T08:05:11;25.00;99.90
22035;DHT22;11181;51.002;4.356;2022-07-29T08:07:42;25.20;99.90
22035;DHT22;11181;51.002;4.356;2022-07-29T08:10:09;25.30;99.90
22035;DHT22;11181;51.002;4.356;2022-07-29T08:12:38;25.60;99.90
22035;DHT22;11181;51.002;4.356;2022-07-29T08:15:06;25.70;99.90
22035;DHT22;11181;51.002;4.356;2022-07-29T08:17:33;25.90;99.90
22035;DHT22;11181;51.002;4.356;2022-07-29T08:20:01;25.80;99.90
22035;DHT22;11181;51.002;4.356;2022-07-29T08:22:28;26.10;99.90
22035;DHT22;11181;51.002;4.356;2022-07-29T08:24:54;26.20;99.90
22035;DHT22;11181;51.002;4.356;2022-07-29T08:27:22;26.10;99.90
22035;DHT22;11181;51.002;4.356;2022-07-29T08:29:50;26.30;99.90
22035;DHT22;11181;51.002;4.356;2022-07-29T08:32:17;26.30;99.90
22035;DHT22;11181;51.002;4.356;2022-07-29T08:34:44;26.50;99.90
22035;DHT22;11181;51.002;4.356;2022-07-29T08:37:12;26.70;99.90
22035;DHT22;11181;51.002;4.356;2022-07-29T08:39:39;27.00;99.90
22035;DHT22;11181;51.002;4.356;2022-07-29T08:42:06;27.20;99.90
22035;DHT22;11181;51.002;4.356;2022-07-29T08:44:34;27.20;99.90
22035;DHT22;11181;51.002;4.356;2022-07-29T08:47:02;27.10;99.90
22035;DHT22;11181;51.002;4.356;2022-07-29T08:49:30;26.80;99.90
22035;DHT22;11181;51.002;4.356;2022-07-29T08:51:58;27.00;99.90
22035;DHT22;11181;51.002;4.356;2022-07-29T08:54:26;27.20;99.90
22035;DHT22;11181;51.002;4.356;2022-07-29T08:56:54;27.50;99.40
22035;DHT22;11181;51.002;4.356;2022-07-29T08:59:23;27.70;98.90
22035;DHT22;11181;51.002;4.356;2022-07-29T09:01:53;28.00;98.50
22035;DHT22;11181;51.002;4.356;2022-07-29T09:04:22;28.30;98.90
22035;DHT22;11181;51.002;4.356;2022-07-29T09:06:51;28.00;96.70
22035;DHT22;11181;51.002;4.356;2022-07-29T09:09:20;27.90;98.40
22035;DHT22;11181;51.002;4.356;2022-07-29T09:11:47;27.70;98.00
22035;DHT22;11181;51.002;4.356;2022-07-29T09:14:14;27.90;96.50
22035;DHT22;11181;51.002;4.356;2022-07-29T09:16:50;27.90;96.60
22035;DHT22;11181;51.002;4.356;2022-07-29T09:19:27;28.40;96.30
22035;DHT22;11181;51.002;4.356;2022-07-29T09:21:56;28.60;95.50
22035;DHT22;11181;51.002;4.356;2022-07-29T09:24:26;28.40;94.70
22035;DHT22;11181;51.002;4.356;2022-07-29T09:26:53;27.90;95.10
22035;DHT22;11181;51.002;4.356;2022-07-29T09:29:22;27.80;95.90
22035;DHT22;11181;51.002;4.356;2022-07-29T09:31:51;27.80;95.70
22035;DHT22;11181;51.002;4.356;2022-07-29T09:34:24;27.70;94.50
22035;DHT22;11181;51.002;4.356;2022-07-29T09:36:52;27.90;94.40
22035;DHT22;11181;51.002;4.356;2022-07-29T09:39:30;28.40;94.50
22035;DHT22;11181;51.002;4.356;2022-07-29T09:41:58;28.50;94.50
22035;DHT22;11181;51.002;4.356;2022-07-29T09:44:26;28.70;93.60
22035;DHT22;11181;51.002;4.356;2022-07-29T09:46:57;28.60;93.80
22035;DHT22;11181;51.002;4.356;2022-07-29T09:49:26;28.80;94.40
22035;DHT22;11181;51.002;4.356;2022-07-29T09:52:00;28.90;93.30
22035;DHT22;11181;51.002;4.356;2022-07-29T09:54:29;29.40;92.90
22035;DHT22;11181;51.002;4.356;2022-07-29T09:57:02;29.80;92.80
22035;DHT22;11181;51.002;4.356;2022-07-29T09:59:29;29.60;92.80
22035;DHT22;11181;51.002;4.356;2022-07-29T10:01:56;29.90;91.70
22035;DHT22;11181;51.002;4.356;2022-07-29T10:04:23;30.20;91.80
22035;DHT22;11181;51.002;4.356;2022-07-29T10:06:59;29.90;91.40
22035;DHT22;11181;51.002;4.356;2022-07-29T10:09:27;29.60;91.40
22035;DHT22;11181;51.002;4.356;2022-07-29T10:12:08;29.60;91.00
22035;DHT22;11181;51.002;4.356;2022-07-29T10:14:37;29.80;91.80
22035;DHT22;11181;51.002;4.356;2022-07-29T10:17:09;30.20;91.10
22035;DHT22;11181;51.002;4.356;2022-07-29T10:19:38;30.40;90.00
22035;DHT22;11181;51.002;4.356;2022-07-29T10:22:07;30.40;90.20
22035;DHT22;11181;51.002;4.356;2022-07-29T10:24:35;30.60;90.00
22035;DHT22;11181;51.002;4.356;2022-07-29T10:27:07;30.60;88.30
22035;DHT22;11181;51.002;4.356;2022-07-29T10:29:34;30.50;88.50
22035;DHT22;11181;51.002;4.356;2022-07-29T10:32:23;30.90;87.80
22035;DHT22;11181;51.002;4.356;2022-07-29T10:38:21;30.20;88.40
22035;DHT22;11181;51.002;4.356;2022-07-29T10:40:57;30.00;87.30
22035;DHT22;11181;51.002;4.356;2022-07-29T10:43:47;30.20;87.20
22035;DHT22;11181;51.002;4.356;2022-07-29T10:46:14;30.60;86.90
22035;DHT22;11181;51.002;4.356;2022-07-29T10:49:04;30.60;87.20
22035;DHT22;11181;51.002;4.356;2022-07-29T10:54:49;31.10;84.10
22035;DHT22;11181;51.002;4.356;2022-07-29T10:57:23;31.20;84.70
22035;DHT22;11181;51.002;4.356;2022-07-29T11:00:28;31.20;83.90
22035;DHT22;11181;51.002;4.356;2022-07-29T11:02:55;31.70;83.40
22035;DHT22;11181;51.002;4.356;2022-07-29T11:05:24;31.80;81.40
22035;DHT22;11181;51.002;4.356;2022-07-29T11:08:24;32.00;79.20
22035;DHT22;11181;51.002;4.356;2022-07-29T11:11:30;32.10;76.40
22035;DHT22;11181;51.002;4.356;2022-07-29T11:13:50;32.20;78.10
22035;DHT22;11181;51.002;4.356;2022-07-29T11:16:21;32.00;74.10
22035;DHT22;11181;51.002;4.356;2022-07-29T11:19:20;32.00;76.50
22035;DHT22;11181;51.002;4.356;2022-07-29T11:21:47;32.20;75.50
22035;DHT22;11181;51.002;4.356;2022-07-29T11:24:17;32.20;78.00
22035;DHT22;11181;51.002;4.356;2022-07-29T11:29:28;32.30;75.40
22035;DHT22;11181;51.002;4.356;2022-07-29T11:32:08;32.20;77.00
22035;DHT22;11181;51.002;4.356;2022-07-29T11:34:35;32.50;75.30
22035;DHT22;11181;51.002;4.356;2022-07-29T11:37:22;32.80;74.20
22035;DHT22;11181;51.002;4.356;2022-07-29T11:40:10;32.70;74.10
22035;DHT22;11181;51.002;4.356;2022-07-29T11:42:46;33.00;71.30
22035;DHT22;11181;51.002;4.356;2022-07-29T11:45:15;33.30;73.90
22035;DHT22;11181;51.002;4.356;2022-07-29T11:47:49;33.30;73.30
22035;DHT22;11181;51.002;4.356;2022-07-29T11:50:29;33.40;70.20
22035;DHT22;11181;51.002;4.356;2022-07-29T11:52:56;32.80;70.60
22035;DHT22;11181;51.002;4.356;2022-07-29T11:55:24;32.70;71.30
22035;DHT22;11181;51.002;4.356;2022-07-29T11:57:53;32.90;69.10
22035;DHT22;11181;51.002;4.356;2022-07-29T12:00:27;33.10;69.70
22035;DHT22;11181;51.002;4.356;2022-07-29T12:02:54;33.20;68.80
22035;DHT22;11181;51.002;4.356;2022-07-29T12:05:34;33.40;67.20
22035;DHT22;11181;51.002;4.356;2022-07-29T12:08:09;33.40;69.00
22035;DHT22;11181;51.002;4.356;2022-07-29T12:10:37;33.00;68.60
22035;DHT22;11181;51.002;4.356;2022-07-29T12:13:05;32.70;70.80
22035;DHT22;11181;51.002;4.356;2022-07-29T12:15:33;32.30;71.30
22035;DHT22;11181;51.002;4.356;2022-07-29T12:18:10;32.10;71.20
22035;DHT22;11181;51.002;4.356;2022-07-29T12:20:37;31.30;71.90
22035;DHT22;11181;51.002;4.356;2022-07-29T12:23:05;30.60;73.00
22035;DHT22;11181;51.002;4.356;2022-07-29T12:25:34;30.90;73.20
22035;DHT22;11181;51.002;4.356;2022-07-29T12:28:03;31.40;73.30
22035;DHT22;11181;51.002;4.356;2022-07-29T12:30:45;32.00;73.50
22035;DHT22;11181;51.002;4.356;2022-07-29T12:33:18;31.80;72.70
22035;DHT22;11181;51.002;4.356;2022-07-29T12:35:48;31.60;72.30
22035;DHT22;11181;51.002;4.356;2022-07-29T12:38:16;31.80;73.30
22035;DHT22;11181;51.002;4.356;2022-07-29T12:40:44;32.30;74.00
22035;DHT22;11181;51.002;4.356;2022-07-29T12:43:13;32.30;70.90
22035;DHT22;11181;51.002;4.356;2022-07-29T12:45:44;31.80;70.80
22035;DHT22;11181;51.002;4.356;2022-07-29T12:48:11;31.40;71.50
22035;DHT22;11181;51.002;4.356;2022-07-29T12:50:53;31.80;71.20
22035;DHT22;11181;51.002;4.356;2022-07-29T12:53:20;32.50;71.50
22035;DHT22;11181;51.002;4.356;2022-07-29T12:55:49;32.70;70.10
22035;DHT22;11181;51.002;4.356;2022-07-29T12:58:28;32.60;69.70
22035;DHT22;11181;51.002;4.356;2022-07-29T13:01:02;32.40;68.40
22035;DHT22;11181;51.002;4.356;2022-07-29T13:03:40;32.30;69.50
22035;DHT22;11181;51.002;4.356;2022-07-29T13:06:31;32.10;69.90
22035;DHT22;11181;51.002;4.356;2022-07-29T13:08:59;31.80;70.10
22035;DHT22;11181;51.002;4.356;2022-07-29T13:11:30;31.80;70.00
22035;DHT22;11181;51.002;4.356;2022-07-29T13:13:58;31.60;71.30
22035;DHT22;11181;51.002;4.356;2022-07-29T13:16:26;32.00;69.30
22035;DHT22;11181;51.002;4.356;2022-07-29T13:19:07;32.30;67.70
22035;DHT22;11181;51.002;4.356;2022-07-29T13:21:35;32.30;68.00
22035;DHT22;11181;51.002;4.356;2022-07-29T13:24:02;32.00;67.80
22035;DHT22;11181;51.002;4.356;2022-07-29T13:26:29;32.00;69.10
22035;DHT22;11181;51.002;4.356;2022-07-29T13:28:56;32.10;70.00
22035;DHT22;11181;51.002;4.356;2022-07-29T13:31:23;32.10;68.20
22035;DHT22;11181;51.002;4.356;2022-07-29T13:33:52;31.80;69.70
22035;DHT22;11181;51.002;4.356;2022-07-29T13:36:18;31.30;72.30
22035;DHT22;11181;51.002;4.356;2022-07-29T13:38:45;30.80;71.50
22035;DHT22;11181;51.002;4.356;2022-07-29T13:41:12;30.90;74.10
22035;DHT22;11181;51.002;4.356;2022-07-29T13:43:39;31.00;72.10
22035;DHT22;11181;51.002;4.356;2022-07-29T13:46:06;31.10;72.60
22035;DHT22;11181;51.002;4.356;2022-07-29T13:48:33;31.20;70.70
22035;DHT22;11181;51.002;4.356;2022-07-29T13:51:02;31.70;69.70
22035;DHT22;11181;51.002;4.356;2022-07-29T13:53:29;31.80;70.10
22035;DHT22;11181;51.002;4.356;2022-07-29T13:55:56;31.70;70.10
22035;DHT22;11181;51.002;4.356;2022-07-29T13:58:23;31.30;69.40
22035;DHT22;11181;51.002;4.356;2022-07-29T14:00:50;30.90;70.50
22035;DHT22;11181;51.002;4.356;2022-07-29T14:03:17;30.80;70.30
22035;DHT22;11181;51.002;4.356;2022-07-29T14:05:43;31.00;69.60
22035;DHT22;11181;51.002;4.356;2022-07-29T14:08:12;31.40;68.70
22035;DHT22;11181;51.002;4.356;2022-07-29T14:10:39;31.80;68.70
22035;DHT22;11181;51.002;4.356;2022-07-29T14:13:05;32.00;68.10
22035;DHT22;11181;51.002;4.356;2022-07-29T14:15:32;31.40;68.80
22035;DHT22;11181;51.002;4.356;2022-07-29T14:18:00;30.80;70.50
22035;DHT22;11181;51.002;4.356;2022-07-29T14:20:27;30.60;70.90
22035;DHT22;11181;51.002;4.356;2022-07-29T14:22:55;30.50;72.20
22035;DHT22;11181;51.002;4.356;2022-07-29T14:25:23;30.40;71.70
22035;DHT22;11181;51.002;4.356;2022-07-29T14:27:50;30.60;70.50
22035;DHT22;11181;51.002;4.356;2022-07-29T14:30:18;30.70;72.30
22035;DHT22;11181;51.002;4.356;2022-07-29T14:32:45;30.70;71.90
22035;DHT22;11181;51.002;4.356;2022-07-29T14:35:12;30.70;72.10
22035;DHT22;11181;51.002;4.356;2022-07-29T14:37:40;30.60;71.80
22035;DHT22;11181;51.002;4.356;2022-07-29T14:40:08;30.00;71.10
22035;DHT22;11181;51.002;4.356;2022-07-29T14:42:37;30.10;72.60
22035;DHT22;11181;51.002;4.356;2022-07-29T14:45:06;30.60;70.10
22035;DHT22;11181;51.002;4.356;2022-07-29T14:47:33;30.90;71.10
22035;DHT22;11181;51.002;4.356;2022-07-29T14:50:00;31.00;71.50
22035;DHT22;11181;51.002;4.356;2022-07-29T14:52:27;31.20;70.60
22035;DHT22;11181;51.002;4.356;2022-07-29T14:54:53;30.90;70.80
22035;DHT22;11181;51.002;4.356;2022-07-29T14:57:20;30.90;70.70
22035;DHT22;11181;51.002;4.356;2022-07-29T14:59:49;31.00;71.30
22035;DHT22;11181;51.002;4.356;2022-07-29T15:02:16;31.40;70.60
22035;DHT22;11181;51.002;4.356;2022-07-29T15:04:43;31.20;71.30
22035;DHT22;11181;51.002;4.356;2022-07-29T15:07:11;31.40;69.80
22035;DHT22;11181;51.002;4.356;2022-07-29T15:09:38;31.60;69.60
22035;DHT22;11181;51.002;4.356;2022-07-29T15:12:06;31.90;68.90
22035;DHT22;11181;51.002;4.356;2022-07-29T15:14:33;31.80;68.60
22035;DHT22;11181;51.002;4.356;2022-07-29T15:17:02;31.80;67.80
22035;DHT22;11181;51.002;4.356;2022-07-29T15:19:29;31.70;67.70
22035;DHT22;11181;51.002;4.356;2022-07-29T15:21:56;31.30;69.40
22035;DHT22;11181;51.002;4.356;2022-07-29T15:24:23;31.30;69.00
22035;DHT22;11181;51.002;4.356;2022-07-29T15:26:49;31.40;68.80
22035;DHT22;11181;51.002;4.356;2022-07-29T15:29:16;31.70;68.80
22035;DHT22;11181;51.002;4.356;2022-07-29T15:31:43;32.10;67.70
22035;DHT22;11181;51.002;4.356;2022-07-29T15:34:12;32.30;68.60
22035;DHT22;11181;51.002;4.356;2022-07-29T15:36:39;32.30;69.40
22035;DHT22;11181;51.002;4.356;2022-07-29T15:39:06;32.20;68.00
22035;DHT22;11181;51.002;4.356;2022-07-29T15:41:33;32.30;67.50
22035;DHT22;11181;51.002;4.356;2022-07-29T15:44:00;32.30;65.80
22035;DHT22;11181;51.002;4.356;2022-07-29T15:46:27;32.20;67.70
22035;DHT22;11181;51.002;4.356;2022-07-29T15:49:12;31.90;66.80
22035;DHT22;11181;51.002;4.356;2022-07-29T15:51:39;32.00;67.30
22035;DHT22;11181;51.002;4.356;2022-07-29T15:54:06;32.20;67.20
22035;DHT22;11181;51.002;4.356;2022-07-29T15:56:33;32.30;67.10